AWC955 SBSP-SBRJ
Flight info
| Callsign | AWC955 |
|---|---|
| Flight time | N/A |
| Altitude | 23000 |
| Route | NIBRU UZ171 KEVUN |
| Aircraft | A320/M-SDE3FGHIRWY/LB1 |
Departure
| Time | 2026-05-03 21:06 |
|---|---|
| Airport | Congonhas–Deputado Freitas Nobre Airport (SBSP) |
Arrival
| Time | N/A |
|---|---|
| Airport | Santos Dumont Airport (SBRJ) |
| Time | Latitude | Longitude | Altitude | Speed | Heading |
|---|---|---|---|---|---|
| 2026-05-03 20:53 | -23.62782 | -46.65777 | 2601 ft | 0 kts | 237° |
| 2026-05-03 20:59 | -23.62776 | -46.65768 | 2601 ft | 4 kts | 238° |
| 2026-05-03 20:59 | -23.62762 | -46.65743 | 2601 ft | 4 kts | 242° |
| 2026-05-03 21:00 | -23.62753 | -46.65716 | 2602 ft | 4 kts | 269° |
| 2026-05-03 21:00 | -23.62755 | -46.65700 | 2602 ft | 3 kts | 312° |
| 2026-05-03 21:00 | -23.62780 | -46.65676 | 2603 ft | 4 kts | 328° |
| 2026-05-03 21:00 | -23.62792 | -46.65667 | 2603 ft | 0 kts | 327° |
| 2026-05-03 21:01 | -23.62792 | -46.65668 | 2603 ft | 0 kts | 327° |
| 2026-05-03 21:02 | -23.62789 | -46.65670 | 2603 ft | 3 kts | 328° |
| 2026-05-03 21:02 | -23.62745 | -46.65700 | 2602 ft | 10 kts | 328° |
| 2026-05-03 21:02 | -23.62672 | -46.65751 | 2602 ft | 16 kts | 326° |
| 2026-05-03 21:03 | -23.62560 | -46.65826 | 2602 ft | 22 kts | 329° |
| 2026-05-03 21:03 | -23.62414 | -46.65929 | 2601 ft | 27 kts | 327° |
| 2026-05-03 21:03 | -23.62257 | -46.66038 | 2600 ft | 16 kts | 333° |
| 2026-05-03 21:03 | -23.62157 | -46.66099 | 2599 ft | 17 kts | 328° |
| 2026-05-03 21:04 | -23.62124 | -46.66123 | 2592 ft | 0 kts | 327° |
| 2026-05-03 21:04 | -23.62112 | -46.66131 | 2589 ft | 4 kts | 334° |
| 2026-05-03 21:04 | -23.62071 | -46.66138 | 2589 ft | 8 kts | 4° |
| 2026-05-03 21:04 | -23.62034 | -46.66090 | 2596 ft | 9 kts | 92° |
| 2026-05-03 21:05 | -23.62046 | -46.66078 | 2589 ft | 0 kts | 147° |
| 2026-05-03 21:05 | -23.62103 | -46.66038 | 2597 ft | 42 kts | 147° |
| 2026-05-03 21:06 | -23.62587 | -46.65705 | 2605 ft | 120 kts | 147° |
| 2026-05-03 21:06 | -23.63380 | -46.65149 | 3146 ft | 125 kts | 145° |
| 2026-05-03 21:06 | -23.64063 | -46.64568 | 3859 ft | 133 kts | 131° |
| 2026-05-03 21:06 | -23.64598 | -46.63698 | 4361 ft | 146 kts | 121° |
| 2026-05-03 21:07 | -23.65137 | -46.62650 | 4813 ft | 170 kts | 120° |
| 2026-05-03 21:07 | -23.65758 | -46.61425 | 5144 ft | 203 kts | 120° |
| 2026-05-03 21:07 | -23.66489 | -46.59994 | 5694 ft | 227 kts | 120° |
| 2026-05-03 21:07 | -23.66752 | -46.59482 | 5889 ft | 236 kts | 119° |
| 2026-05-03 21:09 | -23.71706 | -46.48608 | 10773 ft | 310 kts | 97° |
| 2026-05-03 21:09 | -23.71686 | -46.46171 | 11235 ft | 335 kts | 81° |
| 2026-05-03 21:09 | -23.71301 | -46.43575 | 11625 ft | 359 kts | 80° |
| 2026-05-03 21:09 | -23.70891 | -46.40806 | 12154 ft | 377 kts | 81° |
| 2026-05-03 21:10 | -23.70474 | -46.37952 | 12969 ft | 384 kts | 81° |
| 2026-05-03 21:10 | -23.70057 | -46.35046 | 13875 ft | 390 kts | 81° |
| 2026-05-03 21:10 | -23.69663 | -46.32305 | 14633 ft | 396 kts | 81° |
| 2026-05-03 21:10 | -23.69236 | -46.29314 | 15378 ft | 403 kts | 82° |
| 2026-05-03 21:11 | -23.68806 | -46.26265 | 16143 ft | 410 kts | 82° |
| 2026-05-03 21:11 | -23.68368 | -46.23164 | 16889 ft | 418 kts | 82° |
| 2026-05-03 21:11 | -23.67918 | -46.19995 | 17634 ft | 426 kts | 82° |
| 2026-05-03 21:11 | -23.67458 | -46.16781 | 18396 ft | 433 kts | 82° |
| 2026-05-03 21:12 | -23.66984 | -46.13501 | 19059 ft | 441 kts | 82° |
| 2026-05-03 21:12 | -23.66506 | -46.10202 | 19710 ft | 448 kts | 82° |
| 2026-05-03 21:12 | -23.66027 | -46.06929 | 20353 ft | 454 kts | 82° |
| 2026-05-03 21:12 | -23.65532 | -46.03499 | 21026 ft | 461 kts | 82° |
| 2026-05-03 21:13 | -23.65035 | -46.00020 | 21665 ft | 468 kts | 82° |
| 2026-05-03 21:13 | -23.64533 | -45.96489 | 22325 ft | 475 kts | 82° |
| 2026-05-03 21:13 | -23.64023 | -45.92903 | 22936 ft | 482 kts | 82° |
| 2026-05-03 21:13 | -23.63506 | -45.89307 | 23178 ft | 498 kts | 82° |
| 2026-05-03 21:14 | -23.62947 | -45.85434 | 23240 ft | 517 kts | 82° |
| 2026-05-03 21:14 | -23.62383 | -45.81539 | 23237 ft | 536 kts | 81° |
| 2026-05-03 21:14 | -23.61793 | -45.77485 | 23226 ft | 536 kts | 81° |
| 2026-05-03 21:14 | -23.61218 | -45.73554 | 23236 ft | 522 kts | 81° |
| 2026-05-03 21:15 | -23.60643 | -45.69622 | 23235 ft | 531 kts | 81° |
| 2026-05-03 21:15 | -23.60056 | -45.65618 | 23244 ft | 537 kts | 81° |
| 2026-05-03 21:15 | -23.59460 | -45.61563 | 23235 ft | 542 kts | 81° |
| 2026-05-03 21:15 | -23.58864 | -45.57499 | 23241 ft | 543 kts | 81° |
| 2026-05-03 21:16 | -23.58272 | -45.53430 | 23239 ft | 544 kts | 81° |
| 2026-05-03 21:16 | -23.57676 | -45.49360 | 23238 ft | 544 kts | 81° |
| 2026-05-03 21:16 | -23.57051 | -45.45299 | 23236 ft | 544 kts | 80° |
| 2026-05-03 21:16 | -23.56311 | -45.41248 | 23238 ft | 544 kts | 78° |
| 2026-05-03 21:17 | -23.55464 | -45.37238 | 23237 ft | 544 kts | 76° |
| 2026-05-03 21:17 | -23.54863 | -45.34584 | 23233 ft | 544 kts | 76° |
| 2026-05-03 21:17 | -23.53621 | -45.29234 | 23245 ft | 544 kts | 76° |
| 2026-05-03 21:17 | -23.52707 | -45.25236 | 23237 ft | 543 kts | 76° |
| 2026-05-03 21:18 | -23.51823 | -45.21231 | 23242 ft | 544 kts | 77° |
| 2026-05-03 21:18 | -23.50967 | -45.17218 | 23235 ft | 544 kts | 77° |
| 2026-05-03 21:18 | -23.50137 | -45.13252 | 23229 ft | 544 kts | 77° |
| 2026-05-03 21:18 | -23.49301 | -45.09238 | 23227 ft | 543 kts | 77° |
| 2026-05-03 21:19 | -23.48460 | -45.05230 | 23225 ft | 543 kts | 77° |
| 2026-05-03 21:19 | -23.47886 | -45.02516 | 23226 ft | 543 kts | 77° |
| 2026-05-03 21:20 | -23.44265 | -44.85883 | 23212 ft | 543 kts | 76° |
| 2026-05-03 21:20 | -23.43370 | -44.81878 | 23159 ft | 543 kts | 76° |
| 2026-05-03 21:20 | -23.42473 | -44.77895 | 22697 ft | 539 kts | 76° |
| 2026-05-03 21:21 | -23.41582 | -44.73941 | 22445 ft | 536 kts | 76° |
| 2026-05-03 21:21 | -23.40697 | -44.70001 | 22189 ft | 533 kts | 76° |
| 2026-05-03 21:21 | -23.39821 | -44.66091 | 21936 ft | 531 kts | 76° |
| 2026-05-03 21:21 | -23.38950 | -44.62199 | 21692 ft | 528 kts | 76° |
| 2026-05-03 21:22 | -23.38087 | -44.58331 | 21445 ft | 525 kts | 76° |
| 2026-05-03 21:22 | -23.37240 | -44.54527 | 20878 ft | 522 kts | 76° |
| 2026-05-03 21:22 | -23.36392 | -44.50737 | 20147 ft | 511 kts | 76° |
| 2026-05-03 21:22 | -23.35558 | -44.47007 | 19421 ft | 502 kts | 76° |
| 2026-05-03 21:23 | -23.34730 | -44.43381 | 19135 ft | 484 kts | 73° |
| 2026-05-03 21:23 | -23.33550 | -44.40039 | 19018 ft | 463 kts | 63° |
| 2026-05-03 21:23 | -23.32210 | -44.36930 | 18655 ft | 446 kts | 63° |
| 2026-05-03 21:23 | -23.30886 | -44.33854 | 16997 ft | 451 kts | 64° |
| 2026-05-03 21:24 | -23.29553 | -44.30764 | 15712 ft | 447 kts | 64° |
| 2026-05-03 21:24 | -23.28268 | -44.27785 | 15329 ft | 420 kts | 64° |
| 2026-05-03 21:24 | -23.27075 | -44.25013 | 15164 ft | 390 kts | 64° |
| 2026-05-03 21:24 | -23.25972 | -44.22442 | 15056 ft | 362 kts | 65° |
| 2026-05-03 21:25 | -23.24936 | -44.20028 | 14806 ft | 343 kts | 65° |
| 2026-05-03 21:25 | -23.23936 | -44.17700 | 14057 ft | 342 kts | 65° |
| 2026-05-03 21:25 | -23.22921 | -44.15345 | 12766 ft | 354 kts | 65° |
| 2026-05-03 21:25 | -23.21844 | -44.12857 | 11356 ft | 365 kts | 64° |
| 2026-05-03 21:26 | -23.20747 | -44.10329 | 9891 ft | 375 kts | 64° |
| 2026-05-03 21:26 | -23.19653 | -44.07807 | 9003 ft | 366 kts | 64° |
| 2026-05-03 21:26 | -23.18589 | -44.05418 | 8844 ft | 337 kts | 63° |
| 2026-05-03 21:26 | -23.17586 | -44.03230 | 8709 ft | 311 kts | 63° |
| 2026-05-03 21:27 | -23.16643 | -44.01197 | 8586 ft | 296 kts | 63° |
| 2026-05-03 21:27 | -23.15716 | -43.99199 | 8455 ft | 295 kts | 63° |
| 2026-05-03 21:27 | -23.14825 | -43.97205 | 8336 ft | 293 kts | 64° |
| 2026-05-03 21:27 | -23.13959 | -43.95199 | 8214 ft | 292 kts | 65° |
| 2026-05-03 21:28 | -23.13109 | -43.93202 | 8078 ft | 291 kts | 65° |
| 2026-05-03 21:28 | -23.12266 | -43.91206 | 7962 ft | 291 kts | 65° |
| 2026-05-03 21:28 | -23.11424 | -43.89213 | 8011 ft | 290 kts | 65° |
| 2026-05-03 21:28 | -23.10582 | -43.87228 | 8044 ft | 291 kts | 65° |
| 2026-05-03 21:29 | -23.09730 | -43.85224 | 8048 ft | 292 kts | 65° |
| 2026-05-03 21:29 | -23.08876 | -43.83221 | 8044 ft | 292 kts | 65° |
| 2026-05-03 21:29 | -23.08018 | -43.81221 | 8040 ft | 292 kts | 65° |
| 2026-05-03 21:29 | -23.07731 | -43.80552 | 8040 ft | 291 kts | 65° |
| 2026-05-03 21:30 | -23.07451 | -43.79901 | 8041 ft | 291 kts | 65° |